sensor_id;sensor_type;location;lat;lon;timestamp;temperature;humidity
54461;DHT22;69977;49.414;11.010;2024-01-15T00:00:45;-3.20;99.90
54461;DHT22;69977;49.414;11.010;2024-01-15T00:03:11;-3.20;99.90
54461;DHT22;69977;49.414;11.010;2024-01-15T00:05:37;-3.20;99.90
54461;DHT22;69977;49.414;11.010;2024-01-15T00:08:03;-3.20;99.90
54461;DHT22;69977;49.414;11.010;2024-01-15T00:10:29;-3.20;99.90
54461;DHT22;69977;49.414;11.010;2024-01-15T00:12:54;-3.20;99.90
54461;DHT22;69977;49.414;11.010;2024-01-15T00:15:20;-3.20;99.90
54461;DHT22;69977;49.414;11.010;2024-01-15T00:17:46;-3.30;99.90
54461;DHT22;69977;49.414;11.010;2024-01-15T00:20:12;-3.20;99.90
54461;DHT22;69977;49.414;11.010;2024-01-15T00:22:38;-3.20;99.90
54461;DHT22;69977;49.414;11.010;2024-01-15T00:25:04;-3.20;99.90
54461;DHT22;69977;49.414;11.010;2024-01-15T00:27:30;-3.10;99.90
54461;DHT22;69977;49.414;11.010;2024-01-15T00:29:56;-3.20;99.90
54461;DHT22;69977;49.414;11.010;2024-01-15T00:32:22;-3.20;99.90
54461;DHT22;69977;49.414;11.010;2024-01-15T00:34:48;-3.20;99.90
54461;DHT22;69977;49.414;11.010;2024-01-15T00:37:13;-3.20;99.90
54461;DHT22;69977;49.414;11.010;2024-01-15T00:39:39;-3.20;99.90
54461;DHT22;69977;49.414;11.010;2024-01-15T00:42:05;-3.20;99.90
54461;DHT22;69977;49.414;11.010;2024-01-15T00:44:31;-3.10;99.90
54461;DHT22;69977;49.414;11.010;2024-01-15T00:46:57;-3.10;99.90
54461;DHT22;69977;49.414;11.010;2024-01-15T00:49:22;-3.10;99.90
54461;DHT22;69977;49.414;11.010;2024-01-15T00:51:48;-3.10;99.90
54461;DHT22;69977;49.414;11.010;2024-01-15T00:54:14;-3.00;99.90
54461;DHT22;69977;49.414;11.010;2024-01-15T00:56:40;-3.00;99.90
54461;DHT22;69977;49.414;11.010;2024-01-15T00:59:06;-3.00;99.90
54461;DHT22;69977;49.414;11.010;2024-01-15T01:01:32;-3.00;99.90
54461;DHT22;69977;49.414;11.010;2024-01-15T01:03:57;-3.00;99.90
54461;DHT22;69977;49.414;11.010;2024-01-15T01:06:23;-3.00;99.90
54461;DHT22;69977;49.414;11.010;2024-01-15T01:08:49;-3.00;99.90
54461;DHT22;69977;49.414;11.010;2024-01-15T01:11:15;-2.90;99.90
54461;DHT22;69977;49.414;11.010;2024-01-15T01:13:42;-2.90;99.90
54461;DHT22;69977;49.414;11.010;2024-01-15T01:16:07;-2.80;99.90
54461;DHT22;69977;49.414;11.010;2024-01-15T01:18:34;-2.80;99.90
54461;DHT22;69977;49.414;11.010;2024-01-15T01:21:00;-2.80;99.90
54461;DHT22;69977;49.414;11.010;2024-01-15T01:23:26;-2.80;99.90
54461;DHT22;69977;49.414;11.010;2024-01-15T01:25:52;-2.70;99.90
54461;DHT22;69977;49.414;11.010;2024-01-15T01:28:17;-2.70;99.90
54461;DHT22;69977;49.414;11.010;2024-01-15T01:30:43;-2.70;99.90
54461;DHT22;69977;49.414;11.010;2024-01-15T01:33:09;-2.70;99.90
54461;DHT22;69977;49.414;11.010;2024-01-15T01:35:35;-2.70;99.90
54461;DHT22;69977;49.414;11.010;2024-01-15T01:38:01;-2.70;99.90
54461;DHT22;69977;49.414;11.010;2024-01-15T01:40:27;-2.60;99.90
54461;DHT22;69977;49.414;11.010;2024-01-15T01:42:53;-2.60;99.90
54461;DHT22;69977;49.414;11.010;2024-01-15T01:45:19;-2.60;99.90
54461;DHT22;69977;49.414;11.010;2024-01-15T01:47:45;-2.60;99.90
54461;DHT22;69977;49.414;11.010;2024-01-15T01:50:11;-2.50;99.90
54461;DHT22;69977;49.414;11.010;2024-01-15T01:52:38;-2.50;99.90
54461;DHT22;69977;49.414;11.010;2024-01-15T01:55:04;-2.50;99.90
54461;DHT22;69977;49.414;11.010;2024-01-15T01:57:32;-2.50;99.90
54461;DHT22;69977;49.414;11.010;2024-01-15T02:00:00;-2.50;99.90
54461;DHT22;69977;49.414;11.010;2024-01-15T02:02:37;-2.50;99.90
54461;DHT22;69977;49.414;11.010;2024-01-15T02:05:04;-2.50;99.90
54461;DHT22;69977;49.414;11.010;2024-01-15T02:07:31;-2.40;99.90
54461;DHT22;69977;49.414;11.010;2024-01-15T02:09:57;-2.50;99.90
54461;DHT22;69977;49.414;11.010;2024-01-15T02:12:23;-2.50;99.90
54461;DHT22;69977;49.414;11.010;2024-01-15T02:14:49;-2.40;99.90
54461;DHT22;69977;49.414;11.010;2024-01-15T02:17:15;-2.40;99.90
54461;DHT22;69977;49.414;11.010;2024-01-15T02:19:41;-2.40;99.90
54461;DHT22;69977;49.414;11.010;2024-01-15T02:22:06;-2.40;99.90
54461;DHT22;69977;49.414;11.010;2024-01-15T02:24:32;-2.40;99.90
54461;DHT22;69977;49.414;11.010;2024-01-15T02:26:58;-2.40;99.90
54461;DHT22;69977;49.414;11.010;2024-01-15T02:29:24;-2.40;99.90
54461;DHT22;69977;49.414;11.010;2024-01-15T02:31:50;-2.40;99.90
54461;DHT22;69977;49.414;11.010;2024-01-15T02:34:15;-2.30;99.90
54461;DHT22;69977;49.414;11.010;2024-01-15T02:36:41;-2.30;99.90
54461;DHT22;69977;49.414;11.010;2024-01-15T02:39:07;-2.30;99.90
54461;DHT22;69977;49.414;11.010;2024-01-15T02:41:34;-2.30;99.90
54461;DHT22;69977;49.414;11.010;2024-01-15T02:43:59;-2.30;99.90
54461;DHT22;69977;49.414;11.010;2024-01-15T02:46:25;-2.20;99.90
54461;DHT22;69977;49.414;11.010;2024-01-15T02:48:51;-2.20;99.90
54461;DHT22;69977;49.414;11.010;2024-01-15T02:51:17;-2.20;99.90
54461;DHT22;69977;49.414;11.010;2024-01-15T02:53:42;-2.20;99.90
54461;DHT22;69977;49.414;11.010;2024-01-15T02:56:08;-2.20;99.90
54461;DHT22;69977;49.414;11.010;2024-01-15T02:58:34;-2.20;99.90
54461;DHT22;69977;49.414;11.010;2024-01-15T03:01:00;-2.20;99.90
54461;DHT22;69977;49.414;11.010;2024-01-15T03:03:26;-2.20;99.90
54461;DHT22;69977;49.414;11.010;2024-01-15T03:05:51;-2.20;99.90
54461;DHT22;69977;49.414;11.010;2024-01-15T03:08:17;-2.30;99.90
54461;DHT22;69977;49.414;11.010;2024-01-15T03:10:43;-2.30;99.90
54461;DHT22;69977;49.414;11.010;2024-01-15T03:13:09;-2.30;99.90
54461;DHT22;69977;49.414;11.010;2024-01-15T03:15:35;-2.20;99.90
54461;DHT22;69977;49.414;11.010;2024-01-15T03:18:00;-2.20;99.90
54461;DHT22;69977;49.414;11.010;2024-01-15T03:20:26;-2.20;99.90
54461;DHT22;69977;49.414;11.010;2024-01-15T03:22:52;-2.20;99.90
54461;DHT22;69977;49.414;11.010;2024-01-15T03:25:18;-2.20;99.90
54461;DHT22;69977;49.414;11.010;2024-01-15T03:27:44;-2.20;99.90
54461;DHT22;69977;49.414;11.010;2024-01-15T03:30:10;-2.10;99.90
54461;DHT22;69977;49.414;11.010;2024-01-15T03:32:36;-2.10;99.90
54461;DHT22;69977;49.414;11.010;2024-01-15T03:35:02;-2.10;99.90
54461;DHT22;69977;49.414;11.010;2024-01-15T03:37:28;-2.10;99.90
54461;DHT22;69977;49.414;11.010;2024-01-15T03:39:53;-2.10;99.90
54461;DHT22;69977;49.414;11.010;2024-01-15T03:42:19;-2.10;99.90
54461;DHT22;69977;49.414;11.010;2024-01-15T03:44:45;-2.10;99.90
54461;DHT22;69977;49.414;11.010;2024-01-15T03:47:11;-2.10;99.90
54461;DHT22;69977;49.414;11.010;2024-01-15T03:49:37;-2.00;99.90
54461;DHT22;69977;49.414;11.010;2024-01-15T03:52:03;-2.00;99.90
54461;DHT22;69977;49.414;11.010;2024-01-15T03:54:29;-2.00;99.90
54461;DHT22;69977;49.414;11.010;2024-01-15T03:56:54;-2.00;99.90
54461;DHT22;69977;49.414;11.010;2024-01-15T03:59:20;-2.00;99.90
54461;DHT22;69977;49.414;11.010;2024-01-15T04:01:49;-2.00;99.90
54461;DHT22;69977;49.414;11.010;2024-01-15T04:04:18;-2.00;99.90
54461;DHT22;69977;49.414;11.010;2024-01-15T04:06:44;-2.00;99.90
54461;DHT22;69977;49.414;11.010;2024-01-15T04:09:11;-1.90;99.90
54461;DHT22;69977;49.414;11.010;2024-01-15T04:11:37;-2.00;99.90
54461;DHT22;69977;49.414;11.010;2024-01-15T04:14:03;-1.90;99.90
54461;DHT22;69977;49.414;11.010;2024-01-15T04:16:30;-1.90;99.90
54461;DHT22;69977;49.414;11.010;2024-01-15T04:18:56;-1.90;99.90
54461;DHT22;69977;49.414;11.010;2024-01-15T04:21:21;-1.80;99.90
54461;DHT22;69977;49.414;11.010;2024-01-15T04:23:47;-1.80;99.90
54461;DHT22;69977;49.414;11.010;2024-01-15T04:26:13;-1.80;99.90
54461;DHT22;69977;49.414;11.010;2024-01-15T04:28:39;-1.80;99.90
54461;DHT22;69977;49.414;11.010;2024-01-15T04:31:06;-1.80;99.90
54461;DHT22;69977;49.414;11.010;2024-01-15T04:33:31;-1.80;99.90
54461;DHT22;69977;49.414;11.010;2024-01-15T04:36:02;-1.80;99.90
54461;DHT22;69977;49.414;11.010;2024-01-15T04:38:27;-1.70;99.90
54461;DHT22;69977;49.414;11.010;2024-01-15T04:40:53;-1.70;99.90
54461;DHT22;69977;49.414;11.010;2024-01-15T04:43:19;-1.70;99.90
54461;DHT22;69977;49.414;11.010;2024-01-15T04:45:45;-1.70;99.90
54461;DHT22;69977;49.414;11.010;2024-01-15T04:48:11;-1.70;99.90
54461;DHT22;69977;49.414;11.010;2024-01-15T04:50:36;-1.70;99.90
54461;DHT22;69977;49.414;11.010;2024-01-15T04:53:02;-1.60;99.90
54461;DHT22;69977;49.414;11.010;2024-01-15T04:55:28;-1.60;99.90
54461;DHT22;69977;49.414;11.010;2024-01-15T04:57:54;-1.60;99.90
54461;DHT22;69977;49.414;11.010;2024-01-15T05:00:20;-1.60;99.90
54461;DHT22;69977;49.414;11.010;2024-01-15T05:02:45;-1.60;99.90
54461;DHT22;69977;49.414;11.010;2024-01-15T05:05:11;-1.60;99.90
54461;DHT22;69977;49.414;11.010;2024-01-15T05:07:37;-1.60;99.90
54461;DHT22;69977;49.414;11.010;2024-01-15T05:10:03;-1.60;99.90
54461;DHT22;69977;49.414;11.010;2024-01-15T05:12:29;-1.60;99.90
54461;DHT22;69977;49.414;11.010;2024-01-15T05:14:55;-1.60;99.90
54461;DHT22;69977;49.414;11.010;2024-01-15T05:17:21;-1.50;99.90
54461;DHT22;69977;49.414;11.010;2024-01-15T05:19:47;-1.60;99.90
54461;DHT22;69977;49.414;11.010;2024-01-15T05:22:12;-1.60;99.90
54461;DHT22;69977;49.414;11.010;2024-01-15T05:24:38;-1.60;99.90
54461;DHT22;69977;49.414;11.010;2024-01-15T05:27:04;-1.60;99.90
54461;DHT22;69977;49.414;11.010;2024-01-15T05:29:30;-1.50;99.90
54461;DHT22;69977;49.414;11.010;2024-01-15T05:31:56;-1.50;99.90
54461;DHT22;69977;49.414;11.010;2024-01-15T05:34:21;-1.50;99.90
54461;DHT22;69977;49.414;11.010;2024-01-15T05:36:47;-1.50;99.90
54461;DHT22;69977;49.414;11.010;2024-01-15T05:39:13;-1.50;99.90
54461;DHT22;69977;49.414;11.010;2024-01-15T05:41:39;-1.40;99.90
54461;DHT22;69977;49.414;11.010;2024-01-15T05:44:05;-1.40;99.90
54461;DHT22;69977;49.414;11.010;2024-01-15T05:46:30;-1.40;99.90
54461;DHT22;69977;49.414;11.010;2024-01-15T05:48:56;-1.40;99.90
54461;DHT22;69977;49.414;11.010;2024-01-15T05:51:22;-1.40;99.90
54461;DHT22;69977;49.414;11.010;2024-01-15T05:53:48;-1.40;99.90
54461;DHT22;69977;49.414;11.010;2024-01-15T05:56:14;-1.40;99.90
54461;DHT22;69977;49.414;11.010;2024-01-15T05:58:39;-1.40;99.90
54461;DHT22;69977;49.414;11.010;2024-01-15T06:01:05;-1.30;99.90
54461;DHT22;69977;49.414;11.010;2024-01-15T06:03:31;-1.30;99.90
54461;DHT22;69977;49.414;11.010;2024-01-15T06:05:57;-1.30;99.90
54461;DHT22;69977;49.414;11.010;2024-01-15T06:08:22;-1.30;99.90
54461;DHT22;69977;49.414;11.010;2024-01-15T06:10:48;-1.30;99.90
54461;DHT22;69977;49.414;11.010;2024-01-15T06:13:14;-1.30;99.90
54461;DHT22;69977;49.414;11.010;2024-01-15T06:15:40;-1.20;99.90
54461;DHT22;69977;49.414;11.010;2024-01-15T06:18:06;-1.20;99.90
54461;DHT22;69977;49.414;11.010;2024-01-15T06:20:32;-1.20;99.90
54461;DHT22;69977;49.414;11.010;2024-01-15T06:22:57;-1.20;99.90
54461;DHT22;69977;49.414;11.010;2024-01-15T06:25:23;-1.20;99.90
54461;DHT22;69977;49.414;11.010;2024-01-15T06:27:49;-1.30;99.90
54461;DHT22;69977;49.414;11.010;2024-01-15T06:30:15;-1.20;99.90
54461;DHT22;69977;49.414;11.010;2024-01-15T06:32:41;-1.20;99.90
54461;DHT22;69977;49.414;11.010;2024-01-15T06:35:07;-1.20;99.90
54461;DHT22;69977;49.414;11.010;2024-01-15T06:37:33;-1.20;99.90
54461;DHT22;69977;49.414;11.010;2024-01-15T06:39:58;-1.20;99.90
54461;DHT22;69977;49.414;11.010;2024-01-15T06:42:25;-1.20;99.90
54461;DHT22;69977;49.414;11.010;2024-01-15T06:44:50;-1.30;99.90
54461;DHT22;69977;49.414;11.010;2024-01-15T06:47:16;-1.30;99.90
54461;DHT22;69977;49.414;11.010;2024-01-15T06:49:43;-1.30;99.90
54461;DHT22;69977;49.414;11.010;2024-01-15T06:52:09;-1.20;99.90
54461;DHT22;69977;49.414;11.010;2024-01-15T06:54:35;-1.20;99.90
54461;DHT22;69977;49.414;11.010;2024-01-15T06:57:00;-1.20;99.90
54461;DHT22;69977;49.414;11.010;2024-01-15T06:59:26;-1.20;99.90
54461;DHT22;69977;49.414;11.010;2024-01-15T07:01:52;-1.20;99.90
54461;DHT22;69977;49.414;11.010;2024-01-15T07:04:18;-1.20;99.90
54461;DHT22;69977;49.414;11.010;2024-01-15T07:06:44;-1.10;99.90
54461;DHT22;69977;49.414;11.010;2024-01-15T07:09:09;-1.10;99.90
54461;DHT22;69977;49.414;11.010;2024-01-15T07:11:36;-1.10;99.90
54461;DHT22;69977;49.414;11.010;2024-01-15T07:14:02;-1.00;99.90
54461;DHT22;69977;49.414;11.010;2024-01-15T07:16:28;-1.10;99.90
54461;DHT22;69977;49.414;11.010;2024-01-15T07:18:54;-1.10;99.90
54461;DHT22;69977;49.414;11.010;2024-01-15T07:21:20;-1.20;99.90
54461;DHT22;69977;49.414;11.010;2024-01-15T07:23:46;-1.20;99.90
54461;DHT22;69977;49.414;11.010;2024-01-15T07:26:12;-1.20;99.90
54461;DHT22;69977;49.414;11.010;2024-01-15T07:28:38;-1.20;99.90
54461;DHT22;69977;49.414;11.010;2024-01-15T07:31:04;-1.30;99.90
54461;DHT22;69977;49.414;11.010;2024-01-15T07:33:31;-1.30;99.90
54461;DHT22;69977;49.414;11.010;2024-01-15T07:35:57;-1.30;99.90
54461;DHT22;69977;49.414;11.010;2024-01-15T07:38:23;-1.20;99.90
54461;DHT22;69977;49.414;11.010;2024-01-15T07:40:49;-1.20;99.90
54461;DHT22;69977;49.414;11.010;2024-01-15T07:43:15;-1.20;99.90
54461;DHT22;69977;49.414;11.010;2024-01-15T07:45:41;-1.10;99.90
54461;DHT22;69977;49.414;11.010;2024-01-15T07:48:07;-1.10;99.90
54461;DHT22;69977;49.414;11.010;2024-01-15T07:50:32;-1.10;99.90
54461;DHT22;69977;49.414;11.010;2024-01-15T07:52:58;-1.10;99.90
54461;DHT22;69977;49.414;11.010;2024-01-15T07:55:24;-1.00;99.90
54461;DHT22;69977;49.414;11.010;2024-01-15T07:57:50;-1.00;99.90
54461;DHT22;69977;49.414;11.010;2024-01-15T08:00:17;-1.00;99.90
54461;DHT22;69977;49.414;11.010;2024-01-15T08:02:43;-1.00;99.90
54461;DHT22;69977;49.414;11.010;2024-01-15T08:05:09;-1.00;99.90
54461;DHT22;69977;49.414;11.010;2024-01-15T08:07:34;-0.90;99.90
54461;DHT22;69977;49.414;11.010;2024-01-15T08:10:00;-0.90;99.90
54461;DHT22;69977;49.414;11.010;2024-01-15T08:12:26;-0.90;99.90
54461;DHT22;69977;49.414;11.010;2024-01-15T08:14:52;-0.90;99.90
54461;DHT22;69977;49.414;11.010;2024-01-15T08:17:18;-0.80;99.90
54461;DHT22;69977;49.414;11.010;2024-01-15T08:19:44;-0.80;99.90
54461;DHT22;69977;49.414;11.010;2024-01-15T08:22:09;-0.80;99.90
54461;DHT22;69977;49.414;11.010;2024-01-15T08:24:35;-0.70;99.90
54461;DHT22;69977;49.414;11.010;2024-01-15T08:27:01;-0.70;99.90
54461;DHT22;69977;49.414;11.010;2024-01-15T08:29:27;-0.70;99.90
54461;DHT22;69977;49.414;11.010;2024-01-15T08:31:53;-0.70;99.90
54461;DHT22;69977;49.414;11.010;2024-01-15T08:34:19;-0.70;99.90
54461;DHT22;69977;49.414;11.010;2024-01-15T08:36:45;-0.70;99.90
54461;DHT22;69977;49.414;11.010;2024-01-15T08:39:10;-0.70;99.90
54461;DHT22;69977;49.414;11.010;2024-01-15T08:41:36;-0.70;99.90
54461;DHT22;69977;49.414;11.010;2024-01-15T08:44:02;-0.60;99.90
54461;DHT22;69977;49.414;11.010;2024-01-15T08:46:28;-0.60;99.90
54461;DHT22;69977;49.414;11.010;2024-01-15T08:48:54;-0.60;99.90
54461;DHT22;69977;49.414;11.010;2024-01-15T08:51:20;-0.50;99.90
54461;DHT22;69977;49.414;11.010;2024-01-15T08:53:46;-0.60;99.90
54461;DHT22;69977;49.414;11.010;2024-01-15T08:56:12;-0.50;99.90
54461;DHT22;69977;49.414;11.010;2024-01-15T08:58:38;-0.50;99.90
54461;DHT22;69977;49.414;11.010;2024-01-15T09:01:04;-0.50;99.90
54461;DHT22;69977;49.414;11.010;2024-01-15T09:03:30;-0.50;99.90
54461;DHT22;69977;49.414;11.010;2024-01-15T09:05:56;-0.40;99.90
54461;DHT22;69977;49.414;11.010;2024-01-15T09:08:22;-0.50;99.90
54461;DHT22;69977;49.414;11.010;2024-01-15T09:10:48;-0.50;99.90
54461;DHT22;69977;49.414;11.010;2024-01-15T09:13:13;-0.50;99.90
54461;DHT22;69977;49.414;11.010;2024-01-15T09:15:39;-0.50;99.90
54461;DHT22;69977;49.414;11.010;2024-01-15T09:18:05;-0.50;99.90
54461;DHT22;69977;49.414;11.010;2024-01-15T09:20:31;-0.50;99.90
54461;DHT22;69977;49.414;11.010;2024-01-15T09:22:57;-0.50;99.90
54461;DHT22;69977;49.414;11.010;2024-01-15T09:25:22;-0.60;99.90
54461;DHT22;69977;49.414;11.010;2024-01-15T09:27:48;-0.50;99.90
54461;DHT22;69977;49.414;11.010;2024-01-15T09:30:14;-0.50;99.90
54461;DHT22;69977;49.414;11.010;2024-01-15T09:32:40;-0.40;99.90
54461;DHT22;69977;49.414;11.010;2024-01-15T09:35:07;-0.40;99.90
54461;DHT22;69977;49.414;11.010;2024-01-15T09:37:34;-0.30;99.90
54461;DHT22;69977;49.414;11.010;2024-01-15T09:39:59;-0.30;99.90
54461;DHT22;69977;49.414;11.010;2024-01-15T09:42:25;-0.20;99.90
54461;DHT22;69977;49.414;11.010;2024-01-15T09:44:52;-0.20;99.90
54461;DHT22;69977;49.414;11.010;2024-01-15T09:47:19;-0.10;99.90
54461;DHT22;69977;49.414;11.010;2024-01-15T09:49:47;0.00;99.90
54461;DHT22;69977;49.414;11.010;2024-01-15T09:52:15;0.00;99.90
54461;DHT22;69977;49.414;11.010;2024-01-15T09:54:43;0.00;99.90
54461;DHT22;69977;49.414;11.010;2024-01-15T09:57:09;0.10;99.90
54461;DHT22;69977;49.414;11.010;2024-01-15T09:59:37;0.00;99.90
54461;DHT22;69977;49.414;11.010;2024-01-15T10:02:05;0.00;99.90
54461;DHT22;69977;49.414;11.010;2024-01-15T10:04:31;0.00;99.90
54461;DHT22;69977;49.414;11.010;2024-01-15T10:06:58;0.00;99.90
54461;DHT22;69977;49.414;11.010;2024-01-15T10:09:26;0.10;99.90
54461;DHT22;69977;49.414;11.010;2024-01-15T10:11:52;0.10;99.90
54461;DHT22;69977;49.414;11.010;2024-01-15T10:14:18;0.20;99.90
54461;DHT22;69977;49.414;11.010;2024-01-15T10:16:45;0.10;99.90
54461;DHT22;69977;49.414;11.010;2024-01-15T10:19:11;0.10;99.90
54461;DHT22;69977;49.414;11.010;2024-01-15T10:21:37;0.00;99.90
54461;DHT22;69977;49.414;11.010;2024-01-15T10:24:03;0.00;99.90
54461;DHT22;69977;49.414;11.010;2024-01-15T10:26:30;-0.10;99.90
54461;DHT22;69977;49.414;11.010;2024-01-15T10:28:58;-0.10;99.90
54461;DHT22;69977;49.414;11.010;2024-01-15T10:31:25;-0.10;99.90
54461;DHT22;69977;49.414;11.010;2024-01-15T10:33:51;-0.20;99.90
54461;DHT22;69977;49.414;11.010;2024-01-15T10:36:18;-0.20;99.90
54461;DHT22;69977;49.414;11.010;2024-01-15T10:38:44;-0.20;99.90
54461;DHT22;69977;49.414;11.010;2024-01-15T10:41:11;-0.10;99.90
54461;DHT22;69977;49.414;11.010;2024-01-15T10:43:37;-0.10;99.90
54461;DHT22;69977;49.414;11.010;2024-01-15T10:46:03;-0.10;99.90
54461;DHT22;69977;49.414;11.010;2024-01-15T10:48:29;-0.10;99.90
54461;DHT22;69977;49.414;11.010;2024-01-15T10:50:57;-0.10;99.90
54461;DHT22;69977;49.414;11.010;2024-01-15T10:53:24;-0.10;99.90
54461;DHT22;69977;49.414;11.010;2024-01-15T10:55:53;-0.10;99.90
54461;DHT22;69977;49.414;11.010;2024-01-15T10:58:20;-0.10;99.90
54461;DHT22;69977;49.414;11.010;2024-01-15T11:00:46;-0.10;99.90
54461;DHT22;69977;49.414;11.010;2024-01-15T11:03:12;-0.10;99.90
54461;DHT22;69977;49.414;11.010;2024-01-15T11:05:43;0.00;99.90
54461;DHT22;69977;49.414;11.010;2024-01-15T11:08:09;0.00;99.90
54461;DHT22;69977;49.414;11.010;2024-01-15T11:13:09;0.00;99.90
54461;DHT22;69977;49.414;11.010;2024-01-15T11:15:55;0.00;99.90
54461;DHT22;69977;49.414;11.010;2024-01-15T11:18:21;0.00;99.90
54461;DHT22;69977;49.414;11.010;2024-01-15T11:23:49;-0.10;99.90
54461;DHT22;69977;49.414;11.010;2024-01-15T11:29:06;-0.20;99.90
54461;DHT22;69977;49.414;11.010;2024-01-15T11:34:05;-0.20;99.90
54461;DHT22;69977;49.414;11.010;2024-01-15T11:42:00;0.00;99.90
54461;DHT22;69977;49.414;11.010;2024-01-15T11:44:27;0.00;99.90
54461;DHT22;69977;49.414;11.010;2024-01-15T11:52:20;0.10;99.90
54461;DHT22;69977;49.414;11.010;2024-01-15T12:00:07;0.10;99.90
54461;DHT22;69977;49.414;11.010;2024-01-15T12:02:42;0.00;99.90
54461;DHT22;69977;49.414;11.010;2024-01-15T12:05:09;0.00;99.90
54461;DHT22;69977;49.414;11.010;2024-01-15T12:07:35;0.00;99.90
54461;DHT22;69977;49.414;11.010;2024-01-15T12:10:02;-0.10;99.90
54461;DHT22;69977;49.414;11.010;2024-01-15T12:12:47;-0.10;99.90
54461;DHT22;69977;49.414;11.010;2024-01-15T12:15:17;0.00;99.90
54461;DHT22;69977;49.414;11.010;2024-01-15T12:17:43;-0.10;99.90
54461;DHT22;69977;49.414;11.010;2024-01-15T12:20:11;-0.10;99.90
54461;DHT22;69977;49.414;11.010;2024-01-15T12:22:38;-0.10;99.90
54461;DHT22;69977;49.414;11.010;2024-01-15T12:25:04;-0.10;99.90
54461;DHT22;69977;49.414;11.010;2024-01-15T12:27:30;-0.10;99.90
54461;DHT22;69977;49.414;11.010;2024-01-15T12:29:56;-0.10;99.90
54461;DHT22;69977;49.414;11.010;2024-01-15T12:32:24;-0.10;99.90
54461;DHT22;69977;49.414;11.010;2024-01-15T12:34:50;-0.10;99.90
54461;DHT22;69977;49.414;11.010;2024-01-15T12:37:18;0.00;99.90
54461;DHT22;69977;49.414;11.010;2024-01-15T12:39:47;0.00;99.90
54461;DHT22;69977;49.414;11.010;2024-01-15T12:42:17;0.00;99.90
54461;DHT22;69977;49.414;11.010;2024-01-15T12:44:44;0.00;99.90
54461;DHT22;69977;49.414;11.010;2024-01-15T12:47:10;0.10;99.90
54461;DHT22;69977;49.414;11.010;2024-01-15T12:49:39;0.10;99.90
54461;DHT22;69977;49.414;11.010;2024-01-15T12:52:08;0.10;99.90
54461;DHT22;69977;49.414;11.010;2024-01-15T12:54:34;0.10;99.90
54461;DHT22;69977;49.414;11.010;2024-01-15T12:57:00;0.10;99.90
54461;DHT22;69977;49.414;11.010;2024-01-15T12:59:26;0.10;99.90
54461;DHT22;69977;49.414;11.010;2024-01-15T13:01:52;0.10;99.90
54461;DHT22;69977;49.414;11.010;2024-01-15T13:04:23;0.10;99.90
54461;DHT22;69977;49.414;11.010;2024-01-15T13:06:50;0.10;99.90
54461;DHT22;69977;49.414;11.010;2024-01-15T13:09:16;0.10;99.90
54461;DHT22;69977;49.414;11.010;2024-01-15T13:11:46;0.10;99.90
54461;DHT22;69977;49.414;11.010;2024-01-15T13:14:12;0.10;99.90
54461;DHT22;69977;49.414;11.010;2024-01-15T13:16:41;0.10;99.90
54461;DHT22;69977;49.414;11.010;2024-01-15T13:19:09;0.10;99.90
54461;DHT22;69977;49.414;11.010;2024-01-15T13:21:40;0.10;99.90
54461;DHT22;69977;49.414;11.010;2024-01-15T13:24:06;0.10;99.90
54461;DHT22;69977;49.414;11.010;2024-01-15T13:26:33;0.00;99.90
54461;DHT22;69977;49.414;11.010;2024-01-15T13:29:00;0.00;99.90
54461;DHT22;69977;49.414;11.010;2024-01-15T13:31:27;0.00;99.90
54461;DHT22;69977;49.414;11.010;2024-01-15T13:33:53;0.00;99.90
54461;DHT22;69977;49.414;11.010;2024-01-15T13:36:21;0.00;99.90
54461;DHT22;69977;49.414;11.010;2024-01-15T13:38:47;0.00;99.90
54461;DHT22;69977;49.414;11.010;2024-01-15T13:41:13;0.00;99.90
54461;DHT22;69977;49.414;11.010;2024-01-15T13:43:39;0.00;99.90
54461;DHT22;69977;49.414;11.010;2024-01-15T13:46:04;0.00;99.90
54461;DHT22;69977;49.414;11.010;2024-01-15T13:48:31;0.00;99.90
54461;DHT22;69977;49.414;11.010;2024-01-15T13:50:57;0.00;99.90
54461;DHT22;69977;49.414;11.010;2024-01-15T13:53:25;0.00;99.90
54461;DHT22;69977;49.414;11.010;2024-01-15T13:55:51;-0.10;99.90
54461;DHT22;69977;49.414;11.010;2024-01-15T13:58:17;-0.10;99.90
54461;DHT22;69977;49.414;11.010;2024-01-15T14:00:44;-0.10;99.90
54461;DHT22;69977;49.414;11.010;2024-01-15T14:03:09;-0.10;99.90
54461;DHT22;69977;49.414;11.010;2024-01-15T14:05:35;-0.10;99.90
54461;DHT22;69977;49.414;11.010;2024-01-15T14:08:01;0.00;99.90
54461;DHT22;69977;49.414;11.010;2024-01-15T14:10:27;-0.10;99.90
54461;DHT22;69977;49.414;11.010;2024-01-15T14:12:53;0.00;99.90
54461;DHT22;69977;49.414;11.010;2024-01-15T14:15:18;0.00;99.90
54461;DHT22;69977;49.414;11.010;2024-01-15T14:17:47;-0.10;99.90
54461;DHT22;69977;49.414;11.010;2024-01-15T14:20:12;-0.10;99.90
54461;DHT22;69977;49.414;11.010;2024-01-15T14:22:38;-0.10;99.90
54461;DHT22;69977;49.414;11.010;2024-01-15T14:25:04;-0.10;99.90
54461;DHT22;69977;49.414;11.010;2024-01-15T14:27:30;0.00;99.90
54461;DHT22;69977;49.414;11.010;2024-01-15T14:29:58;-0.10;99.90
54461;DHT22;69977;49.414;11.010;2024-01-15T14:32:23;-0.10;99.90
54461;DHT22;69977;49.414;11.010;2024-01-15T14:34:49;0.00;99.90
54461;DHT22;69977;49.414;11.010;2024-01-15T14:37:15;0.00;99.90
54461;DHT22;69977;49.414;11.010;2024-01-15T14:39:41;0.00;99.90
54461;DHT22;69977;49.414;11.010;2024-01-15T14:42:06;0.00;99.90
54461;DHT22;69977;49.414;11.010;2024-01-15T14:44:32;0.00;99.90
54461;DHT22;69977;49.414;11.010;2024-01-15T14:47:00;0.00;99.90
54461;DHT22;69977;49.414;11.010;2024-01-15T14:49:26;0.00;99.90
54461;DHT22;69977;49.414;11.010;2024-01-15T14:51:52;0.00;99.90
54461;DHT22;69977;49.414;11.010;2024-01-15T14:54:18;-0.10;99.90
54461;DHT22;69977;49.414;11.010;2024-01-15T14:56:43;-0.10;99.90
54461;DHT22;69977;49.414;11.010;2024-01-15T14:59:09;0.00;99.90
54461;DHT22;69977;49.414;11.010;2024-01-15T15:01:35;0.00;99.90
54461;DHT22;69977;49.414;11.010;2024-01-15T15:04:01;0.00;99.90
54461;DHT22;69977;49.414;11.010;2024-01-15T15:06:27;0.00;99.90
54461;DHT22;69977;49.414;11.010;2024-01-15T15:08:56;0.00;99.90
54461;DHT22;69977;49.414;11.010;2024-01-15T15:11:27;-0.10;99.90
54461;DHT22;69977;49.414;11.010;2024-01-15T15:13:53;-0.10;99.90
54461;DHT22;69977;49.414;11.010;2024-01-15T15:16:19;-0.10;99.90
54461;DHT22;69977;49.414;11.010;2024-01-15T15:18:45;-0.10;99.90
54461;DHT22;69977;49.414;11.010;2024-01-15T15:21:12;-0.20;99.90
54461;DHT22;69977;49.414;11.010;2024-01-15T15:23:37;-0.20;99.90
54461;DHT22;69977;49.414;11.010;2024-01-15T15:26:06;-0.20;99.90
54461;DHT22;69977;49.414;11.010;2024-01-15T15:28:32;-0.20;99.90
54461;DHT22;69977;49.414;11.010;2024-01-15T15:31:02;-0.20;99.90
54461;DHT22;69977;49.414;11.010;2024-01-15T15:33:28;-0.20;99.90
54461;DHT22;69977;49.414;11.010;2024-01-15T15:35:54;-0.20;99.90
54461;DHT22;69977;49.414;11.010;2024-01-15T15:38:20;-0.10;99.90
54461;DHT22;69977;49.414;11.010;2024-01-15T15:40:46;-0.20;99.90